Time;durP1;ratioP1;P1;durP2;ratioP2;P2;SDS_P1;SDS_P2;PMS_P1;PMS_P2;Temp;Humidity;BMP_temperature;BMP_pressure;BME280_temperature;BME280_humidity;BME280_pressure;Samples;Min_cycle;Max_cycle;Signal;HPM_P1;HPM_P2
2021/04/30 00:01:29;;;;;;;11.35;7.60;;;;;;;16.42;57.85;99502.28;5032803;28;20029;-39
2021/04/30 00:03:54;;;;;;;12.02;7.20;;;;;;;16.44;58.13;99510.91;5032805;28;20401;-38
2021/04/30 00:06:20;;;;;;;15.95;7.88;;;;;;;16.65;58.26;99511.16;5032849;28;20028;-39
2021/04/30 00:08:45;;;;;;;10.48;7.38;;;;;;;16.69;57.76;99509.59;5032699;28;20068;-38
2021/04/30 00:11:11;;;;;;;13.20;7.50;;;;;;;16.49;58.41;99508.28;5032714;28;20025;-38
2021/04/30 00:13:37;;;;;;;11.48;7.13;;;;;;;16.16;59.22;99507.28;5032956;28;20025;-38
2021/04/30 00:16:04;;;;;;;15.15;7.32;;;;;;;16.29;58.44;99508.78;5032781;28;20026;-38
2021/04/30 00:18:29;;;;;;;11.07;7.30;;;;;;;16.25;58.65;99499.63;5032613;28;20083;-39
2021/04/30 00:20:56;;;;;;;11.10;7.45;;;;;;;15.74;59.98;99488.91;5032396;28;20025;-38
2021/04/30 00:23:26;;;;;;;11.40;7.45;;;;;;;16.06;59.21;99482.97;5032685;28;20036;-39
2021/04/30 00:25:53;;;;;;;14.40;7.68;;;;;;;15.86;60.12;99480.81;5032484;28;20096;-38
2021/04/30 00:28:18;;;;;;;14.07;7.65;;;;;;;15.85;59.62;99478.34;5032541;28;20029;-38
2021/04/30 00:30:44;;;;;;;12.63;7.85;;;;;;;15.94;59.58;99466.97;5032558;28;20033;-38
2021/04/30 00:33:09;;;;;;;13.60;8.10;;;;;;;15.74;59.66;99456.72;5032655;28;20026;-38
2021/04/30 00:35:35;;;;;;;14.85;8.07;;;;;;;15.64;59.77;99456.53;5032461;28;20366;-37
2021/04/30 00:38:00;;;;;;;13.77;7.68;;;;;;;15.59;59.90;99441.19;5032453;28;20032;-37
2021/04/30 00:40:26;;;;;;;14.82;7.13;;;;;;;15.57;59.44;99456.72;5032341;28;20033;-38
2021/04/30 00:42:55;;;;;;;11.75;7.50;;;;;;;15.75;59.40;99469.09;5031807;28;20029;-38
2021/04/30 00:45:22;;;;;;;14.27;8.40;;;;;;;15.75;59.60;99479.81;5031115;28;20029;-38
2021/04/30 00:47:47;;;;;;;15.43;8.43;;;;;;;15.93;58.31;99484.09;5031271;28;20375;-39
2021/04/30 00:50:13;;;;;;;12.95;7.68;;;;;;;15.90;58.13;99478.44;5032817;28;20037;-38
2021/04/30 00:52:38;;;;;;;12.07;7.35;;;;;;;15.84;58.79;99485.59;5032417;28;20018;-38
2021/04/30 00:55:08;;;;;;;14.23;7.82;;;;;;;15.83;58.99;99478.59;5032661;28;20029;-38
2021/04/30 00:57:41;;;;;;;14.38;7.82;;;;;;;15.89;58.74;99485.66;5031160;28;20064;-38
2021/04/30 01:00:08;;;;;;;13.75;8.27;;;;;;;15.90;58.82;99479.25;5032827;28;20048;-37
2021/04/30 01:02:33;;;;;;;11.50;7.57;;;;;;;15.78;58.80;99465.09;5032293;28;20057;-38
2021/04/30 01:05:01;;;;;;;12.70;7.70;;;;;;;15.72;58.79;99479.44;5031073;28;20477;-38
2021/04/30 01:07:26;;;;;;;11.10;7.63;;;;;;;15.71;58.89;99484.00;5032507;28;20030;-38
2021/04/30 01:09:52;;;;;;;12.55;7.72;;;;;;;15.76;59.41;99484.13;5032451;28;20308;-38
2021/04/30 01:12:17;;;;;;;11.38;7.78;;;;;;;15.19;60.94;99484.16;5032169;28;20033;-38
2021/04/30 01:14:44;;;;;;;11.13;7.57;;;;;;;15.47;59.84;99495.94;5032206;28;20037;-39
2021/04/30 01:17:10;;;;;;;13.50;7.72;;;;;;;15.63;59.63;99500.50;5032107;28;20025;-38
2021/04/30 01:19:35;;;;;;;14.25;8.07;;;;;;;15.40;59.57;99469.25;5032580;28;20029;-38
2021/04/30 01:22:00;;;;;;;14.15;8.38;;;;;;;15.66;59.15;99501.88;5032058;28;20450;-37
2021/04/30 01:24:26;;;;;;;11.43;8.55;;;;;;;15.61;59.25;99511.47;5032364;28;20022;-38
2021/04/30 01:26:52;;;;;;;14.32;8.20;;;;;;;15.68;58.90;99508.63;5032008;28;20512;-38
2021/04/30 01:29:18;;;;;;;14.13;8.00;;;;;;;15.58;58.88;99511.94;5032043;28;20048;-38
2021/04/30 01:31:43;;;;;;;15.25;8.73;;;;;;;15.81;58.98;99507.53;5032260;28;20068;-38
2021/04/30 01:34:09;;;;;;;14.70;7.95;;;;;;;15.98;57.81;99505.66;5032200;28;20098;-38
2021/04/30 01:36:35;;;;;;;13.57;8.35;;;;;;;16.20;57.04;99515.63;5031895;28;20129;-38
2021/04/30 01:39:02;;;;;;;12.65;8.32;;;;;;;16.03;57.72;99516.50;5031751;28;20025;-38
2021/04/30 01:41:27;;;;;;;11.68;7.43;;;;;;;16.23;56.50;99515.97;5031501;28;20032;-38
2021/04/30 01:43:53;;;;;;;11.50;7.82;;;;;;;15.99;57.68;99528.78;5031887;28;20029;-38
2021/04/30 01:46:18;;;;;;;13.70;7.28;;;;;;;16.03;57.53;99527.22;5031575;28;20021;-38
2021/04/30 01:48:44;;;;;;;13.32;7.32;;;;;;;16.00;57.20;99525.00;5031906;28;20365;-38
2021/04/30 01:51:09;;;;;;;13.05;7.55;;;;;;;16.18;56.69;99526.66;5031681;28;20437;-39
2021/04/30 01:53:35;;;;;;;12.93;8.05;;;;;;;15.75;57.60;99527.28;5031461;28;20083;-39
2021/04/30 01:56:05;;;;;;;11.18;7.53;;;;;;;15.88;58.00;99529.66;5030798;28;20492;-38
2021/04/30 01:58:31;;;;;;;14.90;7.97;;;;;;;15.94;57.49;99526.00;5031476;28;20141;-37
2021/04/30 02:00:56;;;;;;;12.73;7.80;;;;;;;15.91;57.02;99523.78;5031145;28;20057;-38
2021/04/30 02:03:22;;;;;;;12.38;7.28;;;;;;;15.73;58.29;99530.22;5029472;28;20026;-39
2021/04/30 02:05:48;;;;;;;13.32;7.90;;;;;;;15.89;57.55;99523.22;5030843;28;20119;-39
2021/04/30 02:08:14;;;;;;;11.45;7.72;;;;;;;15.97;57.37;99522.84;5031050;28;20063;-39
2021/04/30 02:10:40;;;;;;;13.27;7.55;;;;;;;16.02;57.33;99520.22;5031004;28;20377;-38
2021/04/30 02:13:06;;;;;;;11.20;7.45;;;;;;;16.06;57.34;99525.91;5030633;28;20041;-38
2021/04/30 02:15:35;;;;;;;9.65;7.28;;;;;;;16.28;55.76;99538.56;5030759;28;20037;-38
2021/04/30 02:18:01;;;;;;;;;;;;;;;16.39;56.40;99543.88;5031764;28;20393;-38
2021/04/30 02:20:26;;;;;;;12.27;7.75;;;;;;;16.18;56.54;99526.66;5031305;28;20397;-39
2021/04/30 02:22:52;;;;;;;10.93;7.50;;;;;;;16.14;56.48;99528.19;5030933;28;20021;-38
2021/04/30 02:25:18;;;;;;;10.98;7.72;;;;;;;16.30;56.68;99523.06;5030998;28;20090;-38
2021/04/30 02:27:44;;;;;;;10.75;7.72;;;;;;;16.33;56.74;99523.34;5031018;28;20140;-38
2021/04/30 02:30:11;;;;;;;11.23;7.88;;;;;;;16.35;56.25;99531.97;5030871;28;20033;-39
2021/04/30 02:32:37;;;;;;;15.73;8.65;;;;;;;16.52;55.90;99518.50;5031104;28;20034;-38
2021/04/30 02:35:07;;;;;;;13.32;7.78;;;;;;;16.36;56.57;99535.50;5031001;28;20116;-37
2021/04/30 02:37:33;;;;;;;15.77;7.80;;;;;;;16.49;56.25;99537.81;5030929;28;20037;-37
2021/04/30 02:39:58;;;;;;;11.18;7.50;;;;;;;16.61;55.84;99543.09;5030727;28;20030;-38
2021/04/30 02:42:23;;;;;;;14.43;8.05;;;;;;;16.56;55.65;99543.00;5030615;28;20037;-38
2021/04/30 02:44:49;;;;;;;11.80;7.95;;;;;;;16.73;56.27;99543.78;5030505;28;20037;-38
2021/04/30 02:47:14;;;;;;;12.80;7.85;;;;;;;16.70;55.61;99528.16;5030212;28;20033;-38
2021/04/30 02:49:45;;;;;;;11.55;7.40;;;;;;;16.67;55.77;99535.91;5030616;28;20025;-38
2021/04/30 02:52:11;;;;;;;13.95;8.00;;;;;;;16.31;56.05;99546.16;5030419;28;20462;-38
2021/04/30 02:54:36;;;;;;;14.48;8.50;;;;;;;16.57;56.68;99555.41;5030128;28;20047;-38
2021/04/30 02:57:02;;;;;;;14.68;8.07;;;;;;;16.29;57.50;99541.03;5030430;28;20108;-37
2021/04/30 02:59:28;;;;;;;10.38;7.93;;;;;;;16.52;56.70;99541.88;5030523;28;20048;-38
2021/04/30 03:01:54;;;;;;;12.98;8.50;;;;;;;16.44;56.58;99537.75;5030401;28;20550;-38
2021/04/30 03:04:19;;;;;;;12.43;7.53;;;;;;;16.47;56.66;99542.63;5030355;28;20112;-38
2021/04/30 03:06:45;;;;;;;17.27;9.35;;;;;;;16.60;55.88;99547.66;5030606;28;20029;-39
2021/04/30 03:09:10;;;;;;;15.65;8.35;;;;;;;16.64;56.44;99544.47;5030014;28;20433;-39
2021/04/30 03:11:36;;;;;;;14.85;8.20;;;;;;;16.67;56.31;99543.97;5030245;28;20041;-39
2021/04/30 03:14:01;;;;;;;14.90;8.32;;;;;;;16.77;56.67;99547.63;5030461;28;20034;-39
2021/04/30 03:16:27;;;;;;;14.20;8.20;;;;;;;16.50;57.32;99560.13;5030329;28;20057;-39
2021/04/30 03:18:52;;;;;;;15.07;8.02;;;;;;;16.71;56.88;99558.53;5030230;28;20033;-39
2021/04/30 03:21:18;;;;;;;13.40;7.97;;;;;;;16.69;56.72;99571.41;5030617;28;20029;-39
2021/04/30 03:23:43;;;;;;;12.52;8.35;;;;;;;16.50;56.77;99560.13;5030259;28;20099;-39
2021/04/30 03:26:09;;;;;;;13.70;8.10;;;;;;;16.70;56.26;99565.78;5030343;28;20029;-39
2021/04/30 03:28:34;;;;;;;13.15;8.20;;;;;;;16.58;56.84;99560.53;5030313;28;20033;-38
2021/04/30 03:31:00;;;;;;;16.90;8.43;;;;;;;16.80;56.27;99562.41;5030387;28;20032;-38
2021/04/30 03:33:25;;;;;;;15.57;8.32;;;;;;;16.67;57.75;99566.28;5028932;28;20037;-39
2021/04/30 03:35:50;;;;;;;14.95;8.65;;;;;;;16.63;57.24;99567.81;5030448;28;20033;-38
2021/04/30 03:38:16;;;;;;;14.43;8.48;;;;;;;16.58;56.42;99575.81;5029983;28;20029;-38
2021/04/30 03:40:41;;;;;;;16.85;8.32;;;;;;;16.60;57.03;99571.84;5029798;28;20458;-37
2021/04/30 03:43:07;;;;;;;14.95;8.02;;;;;;;16.56;57.72;99575.25;5029372;28;20119;-38
2021/04/30 03:45:32;;;;;;;15.27;8.50;;;;;;;16.83;56.71;99574.56;5029910;28;20029;-38
2021/04/30 03:47:58;;;;;;;13.20;7.93;;;;;;;16.92;57.01;99576.56;5029522;28;20033;-38
2021/04/30 03:50:24;;;;;;;15.07;8.27;;;;;;;16.94;57.27;99582.50;5028787;28;20041;-38
2021/04/30 03:52:49;;;;;;;14.23;8.48;;;;;;;16.90;56.57;99565.25;5029843;28;20040;-39
2021/04/30 03:55:15;;;;;;;16.60;8.63;;;;;;;16.92;55.68;99568.50;5029805;28;20033;-37
2021/04/30 03:57:40;;;;;;;12.63;8.90;;;;;;;16.68;56.40;99537.53;5029776;28;20117;-38
2021/04/30 04:00:06;;;;;;;13.38;8.85;;;;;;;17.07;55.56;99577.84;5030236;28;20041;-37
2021/04/30 04:02:31;;;;;;;17.00;8.88;;;;;;;16.94;55.83;99574.44;5029875;28;20500;-38
2021/04/30 04:04:57;;;;;;;14.48;9.13;;;;;;;16.94;56.19;99579.00;5030136;28;20048;-38
2021/04/30 04:07:22;;;;;;;15.00;8.82;;;;;;;16.91;56.14;99580.34;5029853;28;20702;-38
2021/04/30 04:09:48;;;;;;;12.23;8.63;;;;;;;16.96;56.68;99585.78;5029507;28;20022;-39
2021/04/30 04:12:13;;;;;;;15.52;9.35;;;;;;;16.90;56.79;99581.38;5029353;28;20048;-38
2021/04/30 04:14:40;;;;;;;17.92;8.93;;;;;;;16.98;55.85;99588.19;5029617;28;20462;-38
2021/04/30 04:17:06;;;;;;;16.27;8.68;;;;;;;16.97;55.97;99598.16;5029798;28;20033;-37
2021/04/30 04:19:31;;;;;;;13.15;8.35;;;;;;;17.06;55.41;99598.53;5030251;28;20063;-38
2021/04/30 04:21:56;;;;;;;13.98;8.18;;;;;;;17.10;55.64;99606.91;5033112;28;20026;-38
2021/04/30 04:24:22;;;;;;;19.50;8.93;;;;;;;17.21;55.09;99600.59;5033244;28;20466;-38
2021/04/30 04:26:47;;;;;;;19.48;8.50;;;;;;;17.42;55.74;99609.72;5033174;28;20083;-38
2021/04/30 04:29:13;;;;;;;46.58;26.08;;;;;;;17.47;55.34;99608.97;5032999;28;20032;-38
2021/04/30 04:31:38;;;;;;;17.33;10.43;;;;;;;17.63;55.15;99613.44;5032919;28;20458;-38
2021/04/30 04:34:04;;;;;;;16.60;9.25;;;;;;;17.73;56.00;99618.13;5032901;28;20041;-38
2021/04/30 04:36:29;;;;;;;38.90;25.23;;;;;;;17.78;55.26;99615.47;5029843;28;20029;-38
2021/04/30 04:38:55;;;;;;;17.92;11.15;;;;;;;18.11;54.19;99617.16;5013112;28;20029;-38
2021/04/30 04:41:21;;;;;;;17.50;8.57;;;;;;;18.15;53.78;99628.25;5029950;28;20030;-38
2021/04/30 04:43:46;;;;;;;15.07;9.35;;;;;;;18.25;52.96;99632.91;5031334;28;20037;-38
2021/04/30 04:46:12;;;;;;;26.15;17.20;;;;;;;18.39;53.01;99636.78;5031552;28;20044;-39
2021/04/30 04:48:37;;;;;;;15.18;10.20;;;;;;;18.84;52.43;99642.78;5031979;28;20060;-38
2021/04/30 04:51:03;;;;;;;15.52;9.90;;;;;;;18.74;52.25;99643.50;5031496;28;20393;-37
2021/04/30 04:53:28;;;;;;;127.53;84.70;;;;;;;18.87;52.59;99650.34;5031591;28;20087;-37
2021/04/30 04:55:54;;;;;;;112.20;65.05;;;;;;;19.24;51.43;99650.25;5031164;28;20045;-38
2021/04/30 04:58:20;;;;;;;17.60;10.80;;;;;;;19.31;51.33;99650.03;5032093;28;20458;-39
2021/04/30 05:00:46;;;;;;;19.05;8.98;;;;;;;19.47;50.77;99651.72;5032767;28;20029;-38
2021/04/30 05:03:11;;;;;;;15.80;9.68;;;;;;;19.46;50.87;99647.41;5032359;28;20028;-38
2021/04/30 05:05:36;;;;;;;16.77;11.43;;;;;;;19.11;51.89;99656.97;5032277;28;20048;-38
2021/04/30 05:08:02;;;;;;;23.45;13.05;;;;;;;18.92;52.81;99647.66;5031919;28;20032;-37
2021/04/30 05:10:27;;;;;;;28.08;13.88;;;;;;;18.86;53.29;99667.59;5031963;28;20033;-39
2021/04/30 05:12:53;;;;;;;21.52;13.23;;;;;;;19.05;53.09;99659.88;5031905;28;20049;-38
2021/04/30 05:15:19;;;;;;;21.20;14.18;;;;;;;19.17;53.08;99667.75;5032155;28;20052;-39
2021/04/30 05:17:45;;;;;;;20.40;13.00;;;;;;;19.39;52.65;99665.72;5032013;28;20385;-38
2021/04/30 05:20:11;;;;;;;20.83;13.57;;;;;;;19.69;52.34;99665.00;5032303;28;20119;-39
2021/04/30 05:22:39;;;;;;;20.15;13.15;;;;;;;19.78;51.81;99656.41;5031899;28;20018;-39
2021/04/30 05:25:06;;;;;;;21.02;13.60;;;;;;;20.14;51.78;99688.91;5030620;28;20037;-39
2021/04/30 05:27:31;;;;;;;21.27;12.23;;;;;;;20.35;51.19;99665.41;5032098;28;20029;-38
2021/04/30 05:29:56;;;;;;;23.25;12.07;;;;;;;20.47;50.59;99684.88;5030782;28;20335;-39
2021/04/30 05:32:22;;;;;;;20.83;11.30;;;;;;;20.91;49.68;99676.22;5014085;28;20033;-39
2021/04/30 05:34:47;;;;;;;22.85;11.63;;;;;;;21.51;47.95;99680.94;5031812;28;20041;-39
2021/04/30 05:37:13;;;;;;;23.50;13.80;;;;;;;21.35;48.02;99674.75;5031950;28;20034;-39
2021/04/30 05:39:38;;;;;;;23.30;17.23;;;;;;;22.28;46.22;99684.03;5032039;28;20151;-39
2021/04/30 05:42:04;;;;;;;21.85;11.02;;;;;;;22.08;46.48;99693.06;5031585;28;20025;-39
2021/04/30 05:44:30;;;;;;;20.17;10.25;;;;;;;22.73;44.84;99681.22;5031918;28;20031;-39
2021/04/30 05:46:55;;;;;;;17.13;9.98;;;;;;;22.70;44.42;99682.59;5031369;28;20378;-37
2021/04/30 05:49:21;;;;;;;17.63;8.98;;;;;;;22.74;44.86;99693.69;5031428;28;20498;-38
2021/04/30 05:51:46;;;;;;;21.00;10.02;;;;;;;23.08;44.34;99682.81;5029814;28;20048;-38
2021/04/30 05:54:12;;;;;;;13.45;9.00;;;;;;;23.54;43.41;99695.84;5031542;28;20025;-39
2021/04/30 05:56:37;;;;;;;16.88;9.05;;;;;;;23.93;42.25;99704.84;5031181;28;20037;-38
2021/04/30 05:59:03;;;;;;;15.30;9.43;;;;;;;24.31;41.44;99683.94;5031476;28;20036;-38
2021/04/30 06:01:29;;;;;;;15.68;8.25;;;;;;;24.72;40.95;99690.63;5030976;28;20552;-38
2021/04/30 06:03:54;;;;;;;16.98;8.80;;;;;;;25.10;40.17;99694.00;5030784;28;20075;-38
2021/04/30 06:06:20;;;;;;;14.35;8.85;;;;;;;24.80;40.54;99695.38;5030652;28;20025;-39
2021/04/30 06:08:45;;;;;;;15.43;10.38;;;;;;;24.63;40.78;99693.22;5031011;28;20440;-38
2021/04/30 06:11:11;;;;;;;18.50;9.13;;;;;;;25.65;39.17;99679.56;5026698;28;20021;-39
2021/04/30 06:13:36;;;;;;;16.08;9.23;;;;;;;25.98;38.75;99684.06;5012095;28;20462;-38
2021/04/30 06:16:03;;;;;;;13.93;8.80;;;;;;;26.57;37.55;99673.91;5011027;28;20048;-39
2021/04/30 06:18:28;;;;;;;15.82;9.18;;;;;;;27.13;36.56;99662.63;5026091;28;20186;-38
2021/04/30 06:20:54;;;;;;;14.02;8.82;;;;;;;27.48;35.33;99669.84;5030525;28;20148;-43
2021/04/30 06:23:19;;;;;;;16.33;8.18;;;;;;;28.04;35.05;99669.28;5030085;28;20075;-38
2021/04/30 06:25:45;;;;;;;14.05;10.02;;;;;;;27.68;35.27;99656.69;5030249;28;20476;-39
2021/04/30 06:28:10;;;;;;;14.30;8.10;;;;;;;28.56;34.28;99676.66;5029971;28;20045;-39
2021/04/30 06:30:35;;;;;;;16.85;9.55;;;;;;;28.80;33.68;99676.91;5028574;28;20045;-39
2021/04/30 06:33:01;;;;;;;14.77;8.55;;;;;;;28.82;34.53;99679.31;5029326;28;20136;-37
2021/04/30 06:35:28;;;;;;;12.05;8.02;;;;;;;28.63;33.52;99680.50;5029717;28;20025;-39
2021/04/30 06:37:54;;;;;;;14.95;8.63;;;;;;;28.32;34.32;99679.91;5029711;28;20068;-38
2021/04/30 06:40:19;;;;;;;14.70;8.57;;;;;;;28.66;33.89;99681.78;5029790;28;20132;-38
2021/04/30 06:42:45;;;;;;;15.15;9.25;;;;;;;27.53;35.42;99679.84;5028802;28;20151;-39
2021/04/30 06:45:11;;;;;;;18.50;10.00;;;;;;;27.79;35.38;99674.38;5028961;28;20025;-37
2021/04/30 06:47:37;;;;;;;21.30;10.65;;;;;;;27.75;35.26;99662.50;5029774;28;20079;-38
2021/04/30 06:50:03;;;;;;;17.38;10.18;;;;;;;27.92;35.23;99667.19;5029311;28;20455;-39
2021/04/30 06:52:28;;;;;;;17.33;10.20;;;;;;;28.36;34.28;99667.97;5029555;28;20018;-39
2021/04/30 06:54:53;;;;;;;14.98;10.05;;;;;;;28.40;34.33;99674.38;5029594;28;20025;-38
2021/04/30 06:57:19;;;;;;;20.27;8.82;;;;;;;28.79;33.94;99674.50;5029448;28;20025;-39
2021/04/30 06:59:44;;;;;;;14.80;8.93;;;;;;;29.23;33.74;99673.22;5029922;28;20354;-40
2021/04/30 07:02:10;;;;;;;13.20;8.63;;;;;;;29.68;32.75;99669.06;5028164;28;20021;-39
2021/04/30 07:04:36;;;;;;;15.30;9.40;;;;;;;29.43;32.18;99670.84;5029111;28;20127;-38
2021/04/30 07:07:02;;;;;;;13.77;8.68;;;;;;;29.77;32.41;99664.34;5028019;28;20025;-50
2021/04/30 07:09:27;;;;;;;15.43;8.32;;;;;;;29.41;32.45;99662.94;5029105;28;20045;-50
2021/04/30 07:11:53;;;;;;;18.17;9.35;;;;;;;29.99;32.22;99663.22;5027951;28;20119;-53
2021/04/30 07:14:18;;;;;;;15.23;7.38;;;;;;;29.53;32.19;99659.50;5029016;28;20189;-52
2021/04/30 07:16:44;;;;;;;11.48;6.70;;;;;;;30.33;30.80;99657.78;5029308;28;20049;-51
2021/04/30 07:19:09;;;;;;;13.13;6.18;;;;;;;31.03;30.05;99657.03;5028950;28;20040;-52
2021/04/30 07:21:34;;;;;;;10.20;6.60;;;;;;;31.13;30.42;99653.81;5029037;28;20025;-53
2021/04/30 07:24:00;;;;;;;17.02;7.28;;;;;;;31.79;29.33;99671.97;5028851;28;20410;-51
2021/04/30 07:26:25;;;;;;;16.15;7.55;;;;;;;31.82;29.09;99662.22;5029123;28;20033;-39
2021/04/30 07:28:51;;;;;;;13.13;7.40;;;;;;;31.36;29.58;99670.66;5029261;28;20060;-52
2021/04/30 07:31:16;;;;;;;17.73;7.90;;;;;;;31.55;28.98;99670.88;5029255;28;20060;-51
2021/04/30 07:33:48;;;;;;;12.13;7.28;;;;;;;31.25;29.09;99664.00;5029121;28;20474;-52
2021/04/30 07:36:14;;;;;;;11.25;6.75;;;;;;;31.15;29.41;99660.56;5028657;28;20034;-50
2021/04/30 07:38:40;;;;;;;12.55;6.38;;;;;;;31.29;29.54;99662.16;5029242;28;20036;-49
2021/04/30 07:41:05;;;;;;;14.35;6.55;;;;;;;31.15;29.95;99651.53;5029247;28;20711;-50
2021/04/30 07:43:31;;;;;;;12.52;7.03;;;;;;;31.72;28.89;99644.25;5028981;28;20028;-52
2021/04/30 07:45:56;;;;;;;10.90;6.88;;;;;;;31.96;28.59;99646.13;5028712;28;20095;-51
2021/04/30 07:48:22;;;;;;;11.43;6.70;;;;;;;32.15;28.86;99648.25;5028806;28;20052;-52
2021/04/30 07:50:47;;;;;;;9.45;6.57;;;;;;;32.66;28.10;99650.41;5028648;28;20091;-50
2021/04/30 07:53:14;;;;;;;13.75;6.80;;;;;;;33.30;27.54;99652.00;5028536;28;20029;-52
2021/04/30 07:55:39;;;;;;;13.30;6.93;;;;;;;32.74;28.13;99646.69;5031182;28;20058;-51
2021/04/30 07:58:05;;;;;;;10.80;6.70;;;;;;;33.13;27.81;99657.91;5032062;28;20458;-49
2021/04/30 08:00:30;;;;;;;14.55;6.85;;;;;;;33.65;27.14;99647.66;5032501;28;20385;-51
2021/04/30 08:02:56;;;;;;;15.45;6.82;;;;;;;33.22;27.13;99641.16;5032055;28;20095;-48
2021/04/30 08:05:21;;;;;;;15.82;6.97;;;;;;;33.08;27.02;99636.88;5031893;28;20021;-52
2021/04/30 08:07:47;;;;;;;12.57;7.00;;;;;;;32.12;28.14;99629.69;5031599;28;20091;-50
2021/04/30 08:10:12;;;;;;;12.85;7.30;;;;;;;32.22;28.32;99636.66;5032298;28;20024;-52
2021/04/30 08:12:41;;;;;;;16.27;8.10;;;;;;;32.10;28.64;99634.72;5031846;28;20176;-50
2021/04/30 08:15:07;;;;;;;11.93;7.20;;;;;;;32.46;28.60;99632.94;5032559;28;20432;-49
2021/04/30 08:17:32;;;;;;;15.20;8.48;;;;;;;33.20;28.20;99649.00;5031699;28;20029;-49
2021/04/30 08:19:59;;;;;;;17.30;7.30;;;;;;;33.23;27.93;99648.28;5032102;28;20073;-49
2021/04/30 08:22:26;;;;;;;11.07;7.13;;;;;;;33.56;27.32;99645.06;5031729;28;20165;-49
2021/04/30 08:24:51;;;;;;;11.35;6.68;;;;;;;34.15;26.32;99637.63;5032472;28;20083;-51
2021/04/30 08:27:19;;;;;;;16.13;8.48;;;;;;;33.61;27.04;99632.97;5032306;28;20596;-51
2021/04/30 08:29:44;;;;;;;12.50;7.40;;;;;;;33.13;27.13;99635.03;5032303;28;20492;-51
2021/04/30 08:32:09;;;;;;;12.68;7.18;;;;;;;33.38;26.53;99628.16;5031883;28;20029;-52
2021/04/30 08:34:35;;;;;;;13.45;7.20;;;;;;;32.63;27.63;99629.06;5031849;28;20045;-51
2021/04/30 08:37:00;;;;;;;11.43;6.68;;;;;;;32.03;28.37;99616.09;5032068;28;20025;-51
2021/04/30 08:39:26;;;;;;;17.20;8.07;;;;;;;32.21;28.84;99624.81;5031776;28;20425;-51
2021/04/30 08:41:51;;;;;;;14.80;6.85;;;;;;;32.37;27.93;99619.34;5031675;28;20382;-52
2021/04/30 08:44:17;;;;;;;15.65;7.05;;;;;;;32.85;27.58;99622.94;5031643;28;20045;-49
2021/04/30 08:46:43;;;;;;;15.50;6.90;;;;;;;32.45;27.90;99615.63;5031483;28;20033;-51
2021/04/30 08:49:11;;;;;;;14.73;7.13;;;;;;;32.84;28.04;99618.63;5031268;28;20405;-50
2021/04/30 08:51:37;;;;;;;11.02;6.72;;;;;;;33.49;27.16;99596.09;5031767;28;20339;-51
2021/04/30 08:54:03;;;;;;;14.15;6.32;;;;;;;33.88;26.47;99598.06;5031344;28;20025;-50
2021/04/30 08:56:29;;;;;;;11.90;6.55;;;;;;;34.39;25.19;99599.84;5031540;28;20032;-51
2021/04/30 08:58:55;;;;;;;13.23;6.35;;;;;;;34.31;25.80;99589.81;5030488;28;20409;-51
2021/04/30 09:01:20;;;;;;;13.73;6.40;;;;;;;33.87;26.66;99591.75;5013121;28;20095;-50
2021/04/30 09:03:47;;;;;;;11.88;6.13;;;;;;;34.29;26.77;99565.34;5030076;28;20079;-52
2021/04/30 09:06:18;;;;;;;13.73;6.80;;;;;;;34.54;26.17;99585.09;5029522;28;20572;-51
2021/04/30 09:08:48;;;;;;;15.55;6.65;;;;;;;34.70;25.48;99584.19;5031084;28;20494;-49
2021/04/30 09:11:52;;;;;;;12.77;6.20;;;;;;;34.53;25.74;99583.50;5031199;28;20029;-48
2021/04/30 09:14:38;;;;;;;11.63;5.78;;;;;;;34.40;25.21;99580.13;5007473;28;20056;-51
2021/04/30 09:17:05;;;;;;;12.98;5.80;;;;;;;34.53;25.36;99577.19;5030752;28;20041;-49
2021/04/30 09:19:33;;;;;;;15.68;5.70;;;;;;;34.86;25.32;99562.72;5031002;28;20438;-52
2021/04/30 09:22:03;;;;;;;13.15;6.10;;;;;;;35.16;24.86;99565.53;5031025;28;20033;-51
2021/04/30 09:24:29;;;;;;;10.60;5.50;;;;;;;35.30;24.31;99548.38;5030711;28;20493;-51
2021/04/30 09:26:55;;;;;;;13.80;5.38;;;;;;;35.67;24.08;99553.16;5031109;28;20036;-51
2021/04/30 09:29:21;;;;;;;10.50;5.40;;;;;;;36.07;23.40;99551.63;5030699;28;20366;-51
2021/04/30 09:31:47;;;;;;;12.27;6.03;;;;;;;36.13;23.39;99552.09;5030988;28;20029;-51
2021/04/30 09:34:21;;;;;;;24.17;7.20;;;;;;;35.78;24.12;99548.56;5030928;28;20053;-51
2021/04/30 09:37:10;;;;;;;16.10;6.05;;;;;;;35.40;24.55;99547.72;5030998;28;20033;-51
2021/04/30 09:39:57;;;;;;;14.50;5.95;;;;;;;35.51;23.96;99541.50;5031014;28;20044;-51
2021/04/30 09:42:27;;;;;;;11.90;6.50;;;;;;;34.77;25.63;99529.06;5030656;28;20037;-50
2021/04/30 09:44:54;;;;;;;13.48;5.78;;;;;;;35.30;25.46;99530.97;5030493;28;20040;-50
2021/04/30 09:47:24;;;;;;;14.15;5.72;;;;;;;35.02;24.82;99527.44;5029991;28;20449;-51
2021/04/30 09:49:51;;;;;;;15.23;5.90;;;;;;;35.09;24.18;99531.47;5029621;28;20025;-50
2021/04/30 09:52:18;;;;;;;13.52;5.82;;;;;;;35.15;25.22;99527.22;5030423;28;20142;-49
2021/04/30 09:54:43;;;;;;;13.10;5.60;;;;;;;35.07;24.69;99522.75;5030210;28;20513;-53
2021/04/30 09:57:26;;;;;;;10.73;6.05;;;;;;;35.09;25.26;99517.63;5029748;28;20033;-51
2021/04/30 10:00:04;;;;;;;14.30;6.18;;;;;;;35.93;24.60;99518.25;5029903;28;20486;-48
2021/04/30 10:02:33;;;;;;;10.88;5.10;;;;;;;36.03;23.24;99503.75;5030210;28;20033;-49
2021/04/30 10:05:28;;;;;;;16.00;6.50;;;;;;;36.28;23.46;99503.19;5030361;28;20131;-49
2021/04/30 10:07:53;;;;;;;13.10;4.93;;;;;;;36.50;23.22;99507.72;5018651;28;20037;-50
2021/04/30 10:10:23;;;;;;;13.85;4.60;;;;;;;36.09;22.79;99493.91;5030814;28;20530;-51
2021/04/30 10:12:49;;;;;;;12.45;5.03;;;;;;;36.85;22.65;99491.75;5034219;28;20049;-51
2021/04/30 10:15:19;;;;;;;15.40;6.65;;;;;;;35.39;22.61;99479.72;5028409;28;20476;-49
2021/04/30 10:17:44;;;;;;;12.35;5.07;;;;;;;35.74;22.74;99481.34;5042855;28;20032;-51
2021/04/30 10:20:15;;;;;;;9.75;4.70;;;;;;;36.62;22.89;99487.22;5033091;28;20025;-50
2021/04/30 10:22:41;;;;;;;12.40;4.65;;;;;;;36.90;21.86;99486.63;5043652;28;20029;-51
2021/04/30 10:25:08;;;;;;;12.68;4.90;;;;;;;37.17;21.70;99484.41;5038632;28;20021;-49
2021/04/30 10:27:34;;;;;;;10.82;4.70;;;;;;;37.41;21.84;99493.19;5037368;28;20156;-51
2021/04/30 10:30:11;;;;;;;14.43;4.97;;;;;;;37.45;21.05;99487.66;5045930;28;20036;-50
2021/04/30 10:32:46;;;;;;;10.50;4.70;;;;;;;37.03;20.75;99475.97;5021628;28;20021;-48
2021/04/30 10:35:12;;;;;;;11.93;4.72;;;;;;;36.10;22.66;99481.66;5038647;28;20036;-49
2021/04/30 10:37:39;;;;;;;17.13;5.32;;;;;;;35.04;24.60;99471.78;5036369;28;20036;-50
2021/04/30 10:40:05;;;;;;;16.70;5.45;;;;;;;33.71;26.03;99474.38;5044404;28;20471;-51
2021/04/30 10:42:46;;;;;;;11.60;5.40;;;;;;;32.98;26.62;99469.34;5033111;28;20037;-50
2021/04/30 10:45:15;;;;;;;11.65;5.28;;;;;;;33.95;25.91;99462.19;5030764;28;20029;-51
2021/04/30 10:47:40;;;;;;;;;;;;;;;34.60;24.85;99453.78;5031213;28;20029;-40
2021/04/30 10:50:13;;;;;;;10.25;5.05;;;;;;;34.46;25.29;99448.84;5010272;28;19932;-40
2021/04/30 10:52:39;;;;;;;13.80;4.78;;;;;;;34.25;25.00;99452.09;5009939;28;20082;-40
2021/04/30 10:55:05;;;;;;;12.35;4.72;;;;;;;33.63;26.54;99441.16;5012905;28;20041;-39
2021/04/30 10:58:00;;;;;;;14.77;5.53;;;;;;;33.53;26.60;99455.50;5016518;28;20454;-40
2021/04/30 11:00:40;;;;;;;10.32;5.07;;;;;;;34.19;25.72;99453.53;5021183;28;20091;-40
2021/04/30 11:03:20;;;;;;;11.75;4.95;;;;;;;33.46;26.63;99450.66;5010835;28;20030;-41
2021/04/30 11:05:56;;;;;;;10.60;5.28;;;;;;;31.83;27.85;99424.50;5010263;28;20563;-40
2021/04/30 11:08:51;;;;;;;10.98;5.13;;;;;;;32.98;27.27;99438.25;5010519;28;20045;-40
2021/04/30 11:11:16;;;;;;;11.30;5.25;;;;;;;32.55;27.50;99440.81;5010246;28;20100;-40
2021/04/30 11:14:09;;;;;;;12.45;5.00;;;;;;;32.60;26.88;99446.09;4993043;28;20030;-40
2021/04/30 11:16:40;;;;;;;15.85;4.95;;;;;;;32.37;27.63;99445.09;5008376;28;20029;-39
2021/04/30 11:19:06;;;;;;;9.07;4.53;;;;;;;32.08;27.61;99452.66;5009528;28;20369;-41
2021/04/30 11:21:53;;;;;;;11.20;4.90;;;;;;;32.68;27.22;99450.59;5009123;28;20025;-40
2021/04/30 11:24:32;;;;;;;16.35;4.78;;;;;;;33.42;26.15;99440.72;5009168;28;20661;-39